sensor_id;sensor_type;location;lat;lon;timestamp;temperature;humidity
11700;DHT22;5906;51.660;6.674;2023-07-29T00:01:37;18.90;99.90
11700;DHT22;5906;51.660;6.674;2023-07-29T00:04:08;18.90;99.90
11700;DHT22;5906;51.660;6.674;2023-07-29T00:06:35;18.90;99.90
11700;DHT22;5906;51.660;6.674;2023-07-29T00:09:05;18.80;99.90
11700;DHT22;5906;51.660;6.674;2023-07-29T00:11:32;18.80;99.90
11700;DHT22;5906;51.660;6.674;2023-07-29T00:14:03;18.80;99.90
11700;DHT22;5906;51.660;6.674;2023-07-29T00:16:30;18.70;99.90
11700;DHT22;5906;51.660;6.674;2023-07-29T00:18:57;18.80;99.90
11700;DHT22;5906;51.660;6.674;2023-07-29T00:21:24;18.80;99.90
11700;DHT22;5906;51.660;6.674;2023-07-29T00:23:51;18.70;99.90
11700;DHT22;5906;51.660;6.674;2023-07-29T00:26:18;18.70;99.90
11700;DHT22;5906;51.660;6.674;2023-07-29T00:28:45;18.70;99.90
11700;DHT22;5906;51.660;6.674;2023-07-29T00:31:11;18.70;99.90
11700;DHT22;5906;51.660;6.674;2023-07-29T00:33:38;18.80;99.90
11700;DHT22;5906;51.660;6.674;2023-07-29T00:36:06;18.70;99.90
11700;DHT22;5906;51.660;6.674;2023-07-29T00:38:32;18.80;99.90
11700;DHT22;5906;51.660;6.674;2023-07-29T00:41:02;18.80;99.90
11700;DHT22;5906;51.660;6.674;2023-07-29T00:43:30;18.80;99.90
11700;DHT22;5906;51.660;6.674;2023-07-29T00:45:56;18.80;99.90
11700;DHT22;5906;51.660;6.674;2023-07-29T00:48:25;18.80;99.90
11700;DHT22;5906;51.660;6.674;2023-07-29T00:50:53;18.80;99.90
11700;DHT22;5906;51.660;6.674;2023-07-29T00:53:20;18.80;99.90
11700;DHT22;5906;51.660;6.674;2023-07-29T00:55:47;18.80;99.90
11700;DHT22;5906;51.660;6.674;2023-07-29T00:58:14;18.80;99.90
11700;DHT22;5906;51.660;6.674;2023-07-29T01:00:41;18.80;99.90
11700;DHT22;5906;51.660;6.674;2023-07-29T01:03:08;18.80;99.90
11700;DHT22;5906;51.660;6.674;2023-07-29T01:05:55;18.80;99.90
11700;DHT22;5906;51.660;6.674;2023-07-29T01:08:33;18.80;99.90
11700;DHT22;5906;51.660;6.674;2023-07-29T01:14:00;18.80;99.90
11700;DHT22;5906;51.660;6.674;2023-07-29T01:16:34;18.80;99.90
11700;DHT22;5906;51.660;6.674;2023-07-29T01:19:06;18.90;99.90
11700;DHT22;5906;51.660;6.674;2023-07-29T01:21:36;18.90;99.90
11700;DHT22;5906;51.660;6.674;2023-07-29T01:24:03;18.90;99.90
11700;DHT22;5906;51.660;6.674;2023-07-29T01:26:30;18.90;99.90
11700;DHT22;5906;51.660;6.674;2023-07-29T01:28:57;18.90;99.90
11700;DHT22;5906;51.660;6.674;2023-07-29T01:31:33;18.90;99.90
11700;DHT22;5906;51.660;6.674;2023-07-29T01:34:13;18.90;99.90
11700;DHT22;5906;51.660;6.674;2023-07-29T01:36:42;18.90;99.90
11700;DHT22;5906;51.660;6.674;2023-07-29T01:39:14;19.00;99.90
11700;DHT22;5906;51.660;6.674;2023-07-29T01:41:42;19.00;99.90
11700;DHT22;5906;51.660;6.674;2023-07-29T01:44:10;19.00;99.90
11700;DHT22;5906;51.660;6.674;2023-07-29T01:46:37;19.00;99.90
11700;DHT22;5906;51.660;6.674;2023-07-29T01:49:04;19.00;99.90
11700;DHT22;5906;51.660;6.674;2023-07-29T01:51:31;19.00;99.90
11700;DHT22;5906;51.660;6.674;2023-07-29T01:53:58;19.00;99.90
11700;DHT22;5906;51.660;6.674;2023-07-29T01:56:26;19.00;99.90
11700;DHT22;5906;51.660;6.674;2023-07-29T01:58:53;19.00;99.90
11700;DHT22;5906;51.660;6.674;2023-07-29T02:01:20;19.00;99.90
11700;DHT22;5906;51.660;6.674;2023-07-29T02:03:47;19.00;99.90
11700;DHT22;5906;51.660;6.674;2023-07-29T02:06:14;19.00;99.90
11700;DHT22;5906;51.660;6.674;2023-07-29T02:08:41;19.00;99.90
11700;DHT22;5906;51.660;6.674;2023-07-29T02:11:08;19.10;99.90
11700;DHT22;5906;51.660;6.674;2023-07-29T02:13:35;19.10;99.90
11700;DHT22;5906;51.660;6.674;2023-07-29T02:16:02;19.00;99.90
11700;DHT22;5906;51.660;6.674;2023-07-29T02:18:29;19.00;99.90
11700;DHT22;5906;51.660;6.674;2023-07-29T02:20:55;19.00;99.90
11700;DHT22;5906;51.660;6.674;2023-07-29T02:23:22;19.00;99.90
11700;DHT22;5906;51.660;6.674;2023-07-29T02:25:50;19.10;99.90
11700;DHT22;5906;51.660;6.674;2023-07-29T02:28:17;19.10;99.90
11700;DHT22;5906;51.660;6.674;2023-07-29T02:30:43;19.10;99.90
11700;DHT22;5906;51.660;6.674;2023-07-29T02:33:11;19.10;99.90
11700;DHT22;5906;51.660;6.674;2023-07-29T02:35:38;19.10;99.90
11700;DHT22;5906;51.660;6.674;2023-07-29T02:38:05;19.10;99.90
11700;DHT22;5906;51.660;6.674;2023-07-29T02:40:32;19.10;99.90
11700;DHT22;5906;51.660;6.674;2023-07-29T02:42:58;19.10;99.90
11700;DHT22;5906;51.660;6.674;2023-07-29T02:45:25;19.00;99.90
11700;DHT22;5906;51.660;6.674;2023-07-29T02:47:52;19.10;99.90
11700;DHT22;5906;51.660;6.674;2023-07-29T02:50:20;19.10;99.90
11700;DHT22;5906;51.660;6.674;2023-07-29T02:52:46;19.10;99.90
11700;DHT22;5906;51.660;6.674;2023-07-29T02:55:17;19.10;99.90
11700;DHT22;5906;51.660;6.674;2023-07-29T02:57:44;19.10;99.90
11700;DHT22;5906;51.660;6.674;2023-07-29T03:00:11;19.10;99.90
11700;DHT22;5906;51.660;6.674;2023-07-29T03:02:38;19.10;99.90
11700;DHT22;5906;51.660;6.674;2023-07-29T03:05:05;19.10;99.90
11700;DHT22;5906;51.660;6.674;2023-07-29T03:07:32;19.10;99.90
11700;DHT22;5906;51.660;6.674;2023-07-29T03:09:59;19.10;99.90
11700;DHT22;5906;51.660;6.674;2023-07-29T03:12:26;19.10;99.90
11700;DHT22;5906;51.660;6.674;2023-07-29T03:14:53;19.10;99.90
11700;DHT22;5906;51.660;6.674;2023-07-29T03:17:20;19.20;99.90
11700;DHT22;5906;51.660;6.674;2023-07-29T03:19:47;19.20;99.90
11700;DHT22;5906;51.660;6.674;2023-07-29T03:22:14;19.20;99.90
11700;DHT22;5906;51.660;6.674;2023-07-29T03:24:41;19.20;99.90
11700;DHT22;5906;51.660;6.674;2023-07-29T03:27:09;19.20;99.90
11700;DHT22;5906;51.660;6.674;2023-07-29T03:29:36;19.20;99.90
11700;DHT22;5906;51.660;6.674;2023-07-29T03:32:03;19.20;99.90
11700;DHT22;5906;51.660;6.674;2023-07-29T03:34:30;19.20;99.90
11700;DHT22;5906;51.660;6.674;2023-07-29T03:36:59;19.20;99.90
11700;DHT22;5906;51.660;6.674;2023-07-29T03:39:26;19.20;99.90
11700;DHT22;5906;51.660;6.674;2023-07-29T03:41:53;19.20;99.90
11700;DHT22;5906;51.660;6.674;2023-07-29T03:44:21;19.20;99.90
11700;DHT22;5906;51.660;6.674;2023-07-29T03:46:48;19.10;99.90
11700;DHT22;5906;51.660;6.674;2023-07-29T03:49:15;19.00;99.90
11700;DHT22;5906;51.660;6.674;2023-07-29T03:51:41;19.00;99.90
11700;DHT22;5906;51.660;6.674;2023-07-29T03:54:08;19.00;99.90
11700;DHT22;5906;51.660;6.674;2023-07-29T03:56:35;19.00;99.90
11700;DHT22;5906;51.660;6.674;2023-07-29T03:59:04;19.00;99.90
11700;DHT22;5906;51.660;6.674;2023-07-29T04:01:31;19.00;99.90
11700;DHT22;5906;51.660;6.674;2023-07-29T04:03:59;19.10;99.90
11700;DHT22;5906;51.660;6.674;2023-07-29T04:06:26;19.20;99.90
11700;DHT22;5906;51.660;6.674;2023-07-29T04:08:53;19.20;99.90
11700;DHT22;5906;51.660;6.674;2023-07-29T04:11:20;19.10;99.90
11700;DHT22;5906;51.660;6.674;2023-07-29T04:13:47;19.00;99.90
11700;DHT22;5906;51.660;6.674;2023-07-29T04:16:14;19.00;99.90
11700;DHT22;5906;51.660;6.674;2023-07-29T04:18:40;19.00;99.90
11700;DHT22;5906;51.660;6.674;2023-07-29T04:21:07;19.00;99.90
11700;DHT22;5906;51.660;6.674;2023-07-29T04:23:34;19.10;99.90
11700;DHT22;5906;51.660;6.674;2023-07-29T04:26:02;19.10;99.90
11700;DHT22;5906;51.660;6.674;2023-07-29T04:28:28;19.20;99.90
11700;DHT22;5906;51.660;6.674;2023-07-29T04:30:56;19.10;99.90
11700;DHT22;5906;51.660;6.674;2023-07-29T04:33:23;19.10;99.90
11700;DHT22;5906;51.660;6.674;2023-07-29T04:35:50;19.20;99.90
11700;DHT22;5906;51.660;6.674;2023-07-29T04:38:17;19.20;99.90
11700;DHT22;5906;51.660;6.674;2023-07-29T04:40:44;19.20;99.90
11700;DHT22;5906;51.660;6.674;2023-07-29T04:43:10;19.20;99.90
11700;DHT22;5906;51.660;6.674;2023-07-29T04:45:43;19.20;99.90
11700;DHT22;5906;51.660;6.674;2023-07-29T04:48:10;19.10;99.90
11700;DHT22;5906;51.660;6.674;2023-07-29T04:50:36;19.10;99.90
11700;DHT22;5906;51.660;6.674;2023-07-29T04:53:03;19.00;99.90
11700;DHT22;5906;51.660;6.674;2023-07-29T04:55:30;19.00;99.90
11700;DHT22;5906;51.660;6.674;2023-07-29T04:57:57;19.00;99.90
11700;DHT22;5906;51.660;6.674;2023-07-29T05:00:23;19.00;99.90
11700;DHT22;5906;51.660;6.674;2023-07-29T05:02:50;18.90;99.90
11700;DHT22;5906;51.660;6.674;2023-07-29T05:05:18;18.80;99.90
11700;DHT22;5906;51.660;6.674;2023-07-29T05:07:45;18.80;99.90
11700;DHT22;5906;51.660;6.674;2023-07-29T05:10:12;18.70;99.90
11700;DHT22;5906;51.660;6.674;2023-07-29T05:12:39;18.70;99.90
11700;DHT22;5906;51.660;6.674;2023-07-29T05:15:06;18.70;99.90
11700;DHT22;5906;51.660;6.674;2023-07-29T05:17:33;18.80;99.90
11700;DHT22;5906;51.660;6.674;2023-07-29T05:20:00;18.80;99.90
11700;DHT22;5906;51.660;6.674;2023-07-29T05:22:28;18.90;99.90
11700;DHT22;5906;51.660;6.674;2023-07-29T05:24:55;19.00;99.90
11700;DHT22;5906;51.660;6.674;2023-07-29T05:27:22;19.00;99.90
11700;DHT22;5906;51.660;6.674;2023-07-29T05:29:49;19.00;99.90
11700;DHT22;5906;51.660;6.674;2023-07-29T05:32:16;19.00;99.90
11700;DHT22;5906;51.660;6.674;2023-07-29T05:34:43;19.00;99.90
11700;DHT22;5906;51.660;6.674;2023-07-29T05:37:10;18.90;99.90
11700;DHT22;5906;51.660;6.674;2023-07-29T05:39:37;18.90;99.90
11700;DHT22;5906;51.660;6.674;2023-07-29T05:42:05;19.00;99.90
11700;DHT22;5906;51.660;6.674;2023-07-29T05:44:32;18.90;99.90
11700;DHT22;5906;51.660;6.674;2023-07-29T05:46:59;18.90;99.90
11700;DHT22;5906;51.660;6.674;2023-07-29T05:49:26;19.00;99.90
11700;DHT22;5906;51.660;6.674;2023-07-29T05:51:53;18.90;99.90
11700;DHT22;5906;51.660;6.674;2023-07-29T05:54:20;18.90;99.90
11700;DHT22;5906;51.660;6.674;2023-07-29T05:56:47;18.90;99.90
11700;DHT22;5906;51.660;6.674;2023-07-29T05:59:14;18.80;99.90
11700;DHT22;5906;51.660;6.674;2023-07-29T06:01:41;18.90;99.90
11700;DHT22;5906;51.660;6.674;2023-07-29T06:04:08;18.90;99.90
11700;DHT22;5906;51.660;6.674;2023-07-29T06:06:35;19.10;99.90
11700;DHT22;5906;51.660;6.674;2023-07-29T06:09:03;19.00;99.90
11700;DHT22;5906;51.660;6.674;2023-07-29T06:11:31;19.10;99.90
11700;DHT22;5906;51.660;6.674;2023-07-29T06:13:58;19.10;99.90
11700;DHT22;5906;51.660;6.674;2023-07-29T06:16:25;19.20;99.90
11700;DHT22;5906;51.660;6.674;2023-07-29T06:18:52;19.10;99.90
11700;DHT22;5906;51.660;6.674;2023-07-29T06:21:19;19.00;99.90
11700;DHT22;5906;51.660;6.674;2023-07-29T06:23:46;19.00;99.90
11700;DHT22;5906;51.660;6.674;2023-07-29T06:26:14;19.10;99.90
11700;DHT22;5906;51.660;6.674;2023-07-29T06:28:40;19.10;99.90
11700;DHT22;5906;51.660;6.674;2023-07-29T06:31:07;19.10;99.90
11700;DHT22;5906;51.660;6.674;2023-07-29T06:33:35;19.20;99.90
11700;DHT22;5906;51.660;6.674;2023-07-29T06:36:02;19.30;99.90
11700;DHT22;5906;51.660;6.674;2023-07-29T06:38:29;19.30;99.90
11700;DHT22;5906;51.660;6.674;2023-07-29T06:40:56;19.30;99.90
11700;DHT22;5906;51.660;6.674;2023-07-29T06:43:23;19.30;99.90
11700;DHT22;5906;51.660;6.674;2023-07-29T06:45:50;19.40;99.90
11700;DHT22;5906;51.660;6.674;2023-07-29T06:48:17;19.40;99.90
11700;DHT22;5906;51.660;6.674;2023-07-29T06:50:45;19.50;99.90
11700;DHT22;5906;51.660;6.674;2023-07-29T06:53:12;19.50;99.90
11700;DHT22;5906;51.660;6.674;2023-07-29T06:55:39;19.70;99.90
11700;DHT22;5906;51.660;6.674;2023-07-29T06:58:07;19.70;99.90
11700;DHT22;5906;51.660;6.674;2023-07-29T07:00:35;19.80;99.90
11700;DHT22;5906;51.660;6.674;2023-07-29T07:03:02;20.00;99.90
11700;DHT22;5906;51.660;6.674;2023-07-29T07:05:29;20.20;99.90
11700;DHT22;5906;51.660;6.674;2023-07-29T07:07:56;20.50;99.90
11700;DHT22;5906;51.660;6.674;2023-07-29T07:10:23;20.30;99.90
11700;DHT22;5906;51.660;6.674;2023-07-29T07:12:50;20.40;99.90
11700;DHT22;5906;51.660;6.674;2023-07-29T07:15:17;20.30;99.90
11700;DHT22;5906;51.660;6.674;2023-07-29T07:17:44;20.30;99.90
11700;DHT22;5906;51.660;6.674;2023-07-29T07:20:12;20.40;99.90
11700;DHT22;5906;51.660;6.674;2023-07-29T07:22:39;20.50;99.90
11700;DHT22;5906;51.660;6.674;2023-07-29T07:25:06;20.80;99.90
11700;DHT22;5906;51.660;6.674;2023-07-29T07:27:34;20.80;99.90
11700;DHT22;5906;51.660;6.674;2023-07-29T07:30:02;21.00;99.90
11700;DHT22;5906;51.660;6.674;2023-07-29T07:32:29;21.20;99.90
11700;DHT22;5906;51.660;6.674;2023-07-29T07:34:56;21.40;99.90
11700;DHT22;5906;51.660;6.674;2023-07-29T07:37:23;21.60;99.90
11700;DHT22;5906;51.660;6.674;2023-07-29T07:39:50;21.70;99.90
11700;DHT22;5906;51.660;6.674;2023-07-29T07:42:17;21.90;99.90
11700;DHT22;5906;51.660;6.674;2023-07-29T07:44:45;22.20;99.90
11700;DHT22;5906;51.660;6.674;2023-07-29T07:47:11;22.30;99.90
11700;DHT22;5906;51.660;6.674;2023-07-29T07:49:39;22.60;99.90
11700;DHT22;5906;51.660;6.674;2023-07-29T07:52:06;22.80;99.90
11700;DHT22;5906;51.660;6.674;2023-07-29T07:54:33;23.00;99.90
11700;DHT22;5906;51.660;6.674;2023-07-29T07:57:00;23.10;99.90
11700;DHT22;5906;51.660;6.674;2023-07-29T07:59:27;23.30;99.90
11700;DHT22;5906;51.660;6.674;2023-07-29T08:01:54;23.70;99.90
11700;DHT22;5906;51.660;6.674;2023-07-29T08:04:20;23.40;99.90
11700;DHT22;5906;51.660;6.674;2023-07-29T08:06:47;22.90;99.90
11700;DHT22;5906;51.660;6.674;2023-07-29T08:09:15;22.70;99.90
11700;DHT22;5906;51.660;6.674;2023-07-29T08:11:43;22.60;99.90
11700;DHT22;5906;51.660;6.674;2023-07-29T08:14:10;22.50;99.90
11700;DHT22;5906;51.660;6.674;2023-07-29T08:16:37;22.50;99.90
11700;DHT22;5906;51.660;6.674;2023-07-29T08:19:04;22.60;99.90
11700;DHT22;5906;51.660;6.674;2023-07-29T08:21:31;22.80;99.90
11700;DHT22;5906;51.660;6.674;2023-07-29T08:23:58;23.20;99.90
11700;DHT22;5906;51.660;6.674;2023-07-29T08:26:25;23.60;99.90
11700;DHT22;5906;51.660;6.674;2023-07-29T08:28:52;23.80;99.90
11700;DHT22;5906;51.660;6.674;2023-07-29T08:31:21;24.10;99.90
11700;DHT22;5906;51.660;6.674;2023-07-29T08:33:48;24.50;99.90
11700;DHT22;5906;51.660;6.674;2023-07-29T08:36:15;24.80;99.90
11700;DHT22;5906;51.660;6.674;2023-07-29T08:38:42;25.00;99.90
11700;DHT22;5906;51.660;6.674;2023-07-29T08:41:34;24.90;99.90
11700;DHT22;5906;51.660;6.674;2023-07-29T08:44:12;24.50;99.90
11700;DHT22;5906;51.660;6.674;2023-07-29T08:46:40;24.70;99.90
11700;DHT22;5906;51.660;6.674;2023-07-29T08:49:07;24.80;99.00
11700;DHT22;5906;51.660;6.674;2023-07-29T08:51:36;24.80;98.60
11700;DHT22;5906;51.660;6.674;2023-07-29T08:54:03;25.00;99.90
11700;DHT22;5906;51.660;6.674;2023-07-29T08:56:31;25.30;99.90
11700;DHT22;5906;51.660;6.674;2023-07-29T08:58:58;25.50;93.80
11700;DHT22;5906;51.660;6.674;2023-07-29T09:01:27;25.50;93.50
11700;DHT22;5906;51.660;6.674;2023-07-29T09:03:54;25.40;93.80
11700;DHT22;5906;51.660;6.674;2023-07-29T09:06:21;25.30;94.70
11700;DHT22;5906;51.660;6.674;2023-07-29T09:08:51;24.90;96.20
11700;DHT22;5906;51.660;6.674;2023-07-29T09:11:18;24.80;98.80
11700;DHT22;5906;51.660;6.674;2023-07-29T09:13:46;24.40;98.90
11700;DHT22;5906;51.660;6.674;2023-07-29T09:16:13;24.20;99.90
11700;DHT22;5906;51.660;6.674;2023-07-29T09:18:41;24.10;99.90
11700;DHT22;5906;51.660;6.674;2023-07-29T09:21:09;24.00;99.90
11700;DHT22;5906;51.660;6.674;2023-07-29T09:23:43;23.90;99.90
11700;DHT22;5906;51.660;6.674;2023-07-29T09:26:11;23.80;99.90
11700;DHT22;5906;51.660;6.674;2023-07-29T09:28:39;23.60;99.90
11700;DHT22;5906;51.660;6.674;2023-07-29T09:31:07;23.40;99.90
11700;DHT22;5906;51.660;6.674;2023-07-29T09:33:45;23.30;99.90
11700;DHT22;5906;51.660;6.674;2023-07-29T09:36:12;23.20;99.90
11700;DHT22;5906;51.660;6.674;2023-07-29T09:38:39;23.10;99.90
11700;DHT22;5906;51.660;6.674;2023-07-29T09:41:06;23.00;99.90
11700;DHT22;5906;51.660;6.674;2023-07-29T09:43:34;22.90;99.90
11700;DHT22;5906;51.660;6.674;2023-07-29T09:46:03;22.90;99.90
11700;DHT22;5906;51.660;6.674;2023-07-29T09:48:38;23.00;99.90
11700;DHT22;5906;51.660;6.674;2023-07-29T09:51:15;23.20;99.90
11700;DHT22;5906;51.660;6.674;2023-07-29T09:53:43;23.60;99.90
11700;DHT22;5906;51.660;6.674;2023-07-29T09:56:14;23.70;99.90
11700;DHT22;5906;51.660;6.674;2023-07-29T09:58:45;23.80;99.90
11700;DHT22;5906;51.660;6.674;2023-07-29T10:01:13;23.80;99.90
11700;DHT22;5906;51.660;6.674;2023-07-29T10:03:40;23.80;99.90
11700;DHT22;5906;51.660;6.674;2023-07-29T10:06:08;23.90;99.90
11700;DHT22;5906;51.660;6.674;2023-07-29T10:08:36;24.00;99.90
11700;DHT22;5906;51.660;6.674;2023-07-29T10:11:07;24.10;99.90
11700;DHT22;5906;51.660;6.674;2023-07-29T10:13:36;24.30;99.90
11700;DHT22;5906;51.660;6.674;2023-07-29T10:16:04;24.70;99.90
11700;DHT22;5906;51.660;6.674;2023-07-29T10:18:33;24.70;99.20
11700;DHT22;5906;51.660;6.674;2023-07-29T10:21:01;24.90;99.50
11700;DHT22;5906;51.660;6.674;2023-07-29T10:23:38;24.70;97.90
11700;DHT22;5906;51.660;6.674;2023-07-29T10:26:10;24.60;99.90
11700;DHT22;5906;51.660;6.674;2023-07-29T10:28:40;24.70;98.70
11700;DHT22;5906;51.660;6.674;2023-07-29T10:31:09;24.80;95.20
11700;DHT22;5906;51.660;6.674;2023-07-29T10:33:37;25.00;95.90
11700;DHT22;5906;51.660;6.674;2023-07-29T10:36:05;25.20;96.10
11700;DHT22;5906;51.660;6.674;2023-07-29T10:38:32;25.50;91.20
11700;DHT22;5906;51.660;6.674;2023-07-29T10:41:00;25.50;94.10
11700;DHT22;5906;51.660;6.674;2023-07-29T10:43:32;25.60;94.20
11700;DHT22;5906;51.660;6.674;2023-07-29T10:46:19;25.80;90.00
11700;DHT22;5906;51.660;6.674;2023-07-29T10:51:35;26.00;84.50
11700;DHT22;5906;51.660;6.674;2023-07-29T10:56:32;26.00;79.80
11700;DHT22;5906;51.660;6.674;2023-07-29T11:01:57;26.00;79.10
11700;DHT22;5906;51.660;6.674;2023-07-29T11:04:29;26.20;81.80
11700;DHT22;5906;51.660;6.674;2023-07-29T11:09:54;26.60;76.80
11700;DHT22;5906;51.660;6.674;2023-07-29T11:12:49;26.90;72.90
11700;DHT22;5906;51.660;6.674;2023-07-29T11:15:26;27.30;73.60
11700;DHT22;5906;51.660;6.674;2023-07-29T11:17:56;27.30;66.20
11700;DHT22;5906;51.660;6.674;2023-07-29T11:20:27;27.10;63.60
11700;DHT22;5906;51.660;6.674;2023-07-29T11:22:56;27.20;61.30
11700;DHT22;5906;51.660;6.674;2023-07-29T11:25:26;27.10;59.00
11700;DHT22;5906;51.660;6.674;2023-07-29T11:27:55;27.00;62.50
11700;DHT22;5906;51.660;6.674;2023-07-29T11:30:22;26.80;62.00
11700;DHT22;5906;51.660;6.674;2023-07-29T11:32:57;26.50;68.80
11700;DHT22;5906;51.660;6.674;2023-07-29T11:35:25;26.50;71.70
11700;DHT22;5906;51.660;6.674;2023-07-29T11:37:53;26.70;70.20
11700;DHT22;5906;51.660;6.674;2023-07-29T11:40:22;26.80;65.80
11700;DHT22;5906;51.660;6.674;2023-07-29T11:42:52;26.80;68.20
11700;DHT22;5906;51.660;6.674;2023-07-29T11:45:21;26.70;68.40
11700;DHT22;5906;51.660;6.674;2023-07-29T11:47:51;26.70;66.20
11700;DHT22;5906;51.660;6.674;2023-07-29T11:50:18;26.70;68.10
11700;DHT22;5906;51.660;6.674;2023-07-29T11:52:46;26.90;68.00
11700;DHT22;5906;51.660;6.674;2023-07-29T11:55:14;26.80;66.40
11700;DHT22;5906;51.660;6.674;2023-07-29T11:57:43;27.10;68.10
11700;DHT22;5906;51.660;6.674;2023-07-29T12:00:11;27.00;67.70
11700;DHT22;5906;51.660;6.674;2023-07-29T12:02:41;27.00;65.20
11700;DHT22;5906;51.660;6.674;2023-07-29T12:05:09;26.80;65.30
11700;DHT22;5906;51.660;6.674;2023-07-29T12:07:42;26.90;63.30
11700;DHT22;5906;51.660;6.674;2023-07-29T12:10:10;27.00;65.40
11700;DHT22;5906;51.660;6.674;2023-07-29T12:12:47;27.10;67.50
11700;DHT22;5906;51.660;6.674;2023-07-29T12:15:26;27.00;68.00
11700;DHT22;5906;51.660;6.674;2023-07-29T12:17:55;26.80;70.30
11700;DHT22;5906;51.660;6.674;2023-07-29T12:20:24;26.50;65.00
11700;DHT22;5906;51.660;6.674;2023-07-29T12:22:59;26.40;67.80
11700;DHT22;5906;51.660;6.674;2023-07-29T12:25:28;26.40;67.70
11700;DHT22;5906;51.660;6.674;2023-07-29T12:27:56;26.20;71.10
11700;DHT22;5906;51.660;6.674;2023-07-29T12:30:23;26.30;74.40
11700;DHT22;5906;51.660;6.674;2023-07-29T12:32:52;26.60;73.30
11700;DHT22;5906;51.660;6.674;2023-07-29T12:35:19;26.40;69.10
11700;DHT22;5906;51.660;6.674;2023-07-29T12:37:45;26.50;68.90
11700;DHT22;5906;51.660;6.674;2023-07-29T12:40:23;26.30;66.70
11700;DHT22;5906;51.660;6.674;2023-07-29T12:42:51;26.40;71.70
11700;DHT22;5906;51.660;6.674;2023-07-29T12:45:20;26.50;72.30
11700;DHT22;5906;51.660;6.674;2023-07-29T12:47:50;26.50;69.30
11700;DHT22;5906;51.660;6.674;2023-07-29T12:50:20;26.40;68.60
11700;DHT22;5906;51.660;6.674;2023-07-29T12:52:48;26.20;68.30
11700;DHT22;5906;51.660;6.674;2023-07-29T12:55:15;26.00;71.20
11700;DHT22;5906;51.660;6.674;2023-07-29T12:57:45;25.80;77.10
11700;DHT22;5906;51.660;6.674;2023-07-29T13:00:12;25.80;72.20
11700;DHT22;5906;51.660;6.674;2023-07-29T13:02:40;25.80;76.40
11700;DHT22;5906;51.660;6.674;2023-07-29T13:05:09;25.60;81.50
11700;DHT22;5906;51.660;6.674;2023-07-29T13:07:39;25.40;87.00
11700;DHT22;5906;51.660;6.674;2023-07-29T13:10:06;25.20;97.70
11700;DHT22;5906;51.660;6.674;2023-07-29T13:12:33;24.90;99.90
11700;DHT22;5906;51.660;6.674;2023-07-29T13:15:00;24.80;99.90
11700;DHT22;5906;51.660;6.674;2023-07-29T13:17:27;24.40;99.90
11700;DHT22;5906;51.660;6.674;2023-07-29T13:19:54;23.90;99.90
11700;DHT22;5906;51.660;6.674;2023-07-29T13:22:21;23.50;99.90
11700;DHT22;5906;51.660;6.674;2023-07-29T13:24:48;23.30;99.90
11700;DHT22;5906;51.660;6.674;2023-07-29T13:27:15;23.20;99.90
11700;DHT22;5906;51.660;6.674;2023-07-29T13:29:42;23.20;99.90
11700;DHT22;5906;51.660;6.674;2023-07-29T13:32:10;23.10;99.90
11700;DHT22;5906;51.660;6.674;2023-07-29T13:34:37;22.70;99.90
11700;DHT22;5906;51.660;6.674;2023-07-29T13:37:07;22.40;99.90
11700;DHT22;5906;51.660;6.674;2023-07-29T13:39:34;22.00;99.90
11700;DHT22;5906;51.660;6.674;2023-07-29T13:42:01;21.40;99.90
11700;DHT22;5906;51.660;6.674;2023-07-29T13:44:28;20.90;99.90
11700;DHT22;5906;51.660;6.674;2023-07-29T13:46:55;20.60;99.90
11700;DHT22;5906;51.660;6.674;2023-07-29T13:49:22;20.40;99.90
11700;DHT22;5906;51.660;6.674;2023-07-29T13:51:49;20.30;99.90
11700;DHT22;5906;51.660;6.674;2023-07-29T13:54:17;20.20;99.90
11700;DHT22;5906;51.660;6.674;2023-07-29T13:56:44;20.10;99.90
11700;DHT22;5906;51.660;6.674;2023-07-29T13:59:11;20.10;99.90
11700;DHT22;5906;51.660;6.674;2023-07-29T14:01:37;20.00;99.90
11700;DHT22;5906;51.660;6.674;2023-07-29T14:04:04;19.90;99.90
11700;DHT22;5906;51.660;6.674;2023-07-29T14:06:32;19.80;99.90
11700;DHT22;5906;51.660;6.674;2023-07-29T14:09:11;19.70;99.90
11700;DHT22;5906;51.660;6.674;2023-07-29T14:11:39;19.70;99.90
11700;DHT22;5906;51.660;6.674;2023-07-29T14:14:07;19.70;99.90
11700;DHT22;5906;51.660;6.674;2023-07-29T14:16:34;19.50;99.90
11700;DHT22;5906;51.660;6.674;2023-07-29T14:19:02;19.30;99.90
11700;DHT22;5906;51.660;6.674;2023-07-29T14:21:30;19.30;99.90
11700;DHT22;5906;51.660;6.674;2023-07-29T14:23:56;19.30;99.90
11700;DHT22;5906;51.660;6.674;2023-07-29T14:26:23;19.40;99.90
11700;DHT22;5906;51.660;6.674;2023-07-29T14:28:51;19.60;99.90
11700;DHT22;5906;51.660;6.674;2023-07-29T14:31:18;19.90;99.90
11700;DHT22;5906;51.660;6.674;2023-07-29T14:33:45;20.10;99.90
11700;DHT22;5906;51.660;6.674;2023-07-29T14:36:12;20.40;99.90
11700;DHT22;5906;51.660;6.674;2023-07-29T14:38:39;20.60;99.90
11700;DHT22;5906;51.660;6.674;2023-07-29T14:41:06;20.80;99.90
11700;DHT22;5906;51.660;6.674;2023-07-29T14:43:34;21.10;99.90
11700;DHT22;5906;51.660;6.674;2023-07-29T14:46:02;21.30;99.90
11700;DHT22;5906;51.660;6.674;2023-07-29T14:48:29;21.30;99.90
11700;DHT22;5906;51.660;6.674;2023-07-29T14:50:56;21.50;99.90
11700;DHT22;5906;51.660;6.674;2023-07-29T14:53:23;21.70;99.90
11700;DHT22;5906;51.660;6.674;2023-07-29T14:55:51;22.00;99.90
11700;DHT22;5906;51.660;6.674;2023-07-29T14:58:17;22.20;99.90
11700;DHT22;5906;51.660;6.674;2023-07-29T15:00:44;22.40;99.90
11700;DHT22;5906;51.660;6.674;2023-07-29T15:03:12;22.70;99.90
11700;DHT22;5906;51.660;6.674;2023-07-29T15:05:39;22.60;99.90
11700;DHT22;5906;51.660;6.674;2023-07-29T15:08:07;22.70;99.90
11700;DHT22;5906;51.660;6.674;2023-07-29T15:10:34;22.90;99.90
11700;DHT22;5906;51.660;6.674;2023-07-29T15:13:02;23.10;99.90
11700;DHT22;5906;51.660;6.674;2023-07-29T15:15:29;23.20;99.90
11700;DHT22;5906;51.660;6.674;2023-07-29T15:17:56;23.30;99.90
11700;DHT22;5906;51.660;6.674;2023-07-29T15:20:24;23.40;99.90
11700;DHT22;5906;51.660;6.674;2023-07-29T15:22:51;23.60;99.90
11700;DHT22;5906;51.660;6.674;2023-07-29T15:25:18;23.40;99.90
11700;DHT22;5906;51.660;6.674;2023-07-29T15:27:45;23.30;99.90
11700;DHT22;5906;51.660;6.674;2023-07-29T15:30:11;23.40;99.90
11700;DHT22;5906;51.660;6.674;2023-07-29T15:32:39;23.40;99.90
11700;DHT22;5906;51.660;6.674;2023-07-29T15:35:08;23.30;99.90
11700;DHT22;5906;51.660;6.674;2023-07-29T15:37:35;23.20;99.90
11700;DHT22;5906;51.660;6.674;2023-07-29T15:40:02;23.20;99.90
11700;DHT22;5906;51.660;6.674;2023-07-29T15:42:30;23.20;99.90
11700;DHT22;5906;51.660;6.674;2023-07-29T15:44:57;23.40;99.90
11700;DHT22;5906;51.660;6.674;2023-07-29T15:47:24;23.50;99.90
11700;DHT22;5906;51.660;6.674;2023-07-29T15:49:51;23.70;99.90
11700;DHT22;5906;51.660;6.674;2023-07-29T15:52:18;23.60;99.90
11700;DHT22;5906;51.660;6.674;2023-07-29T15:54:45;23.60;99.90
11700;DHT22;5906;51.660;6.674;2023-07-29T15:57:12;23.60;99.90
11700;DHT22;5906;51.660;6.674;2023-07-29T15:59:39;23.40;99.90
11700;DHT22;5906;51.660;6.674;2023-07-29T16:02:06;23.40;99.90
11700;DHT22;5906;51.660;6.674;2023-07-29T16:04:35;23.30;99.90